createdAt,value
2023-01-29T00:01:43.761Z,21.73
2023-01-29T00:04:14.224Z,24.13
2023-01-29T00:06:47.240Z,24.83
2023-01-29T00:09:16.981Z,22.83
2023-01-29T00:11:47.469Z,24.07
2023-01-29T00:14:17.894Z,23.70
2023-01-29T00:16:48.545Z,22.67
2023-01-29T00:19:19.840Z,22.77
2023-01-29T00:21:52.283Z,22.10
2023-01-29T00:24:23.260Z,21.73
2023-01-29T00:26:53.480Z,23.83
2023-01-29T00:29:23.869Z,23.57
2023-01-29T00:31:55.028Z,24.03
2023-01-29T00:34:26.422Z,26.30
2023-01-29T00:37:05.139Z,21.73
2023-01-29T00:39:47.913Z,24.57
2023-01-29T00:42:36.089Z,24.83
2023-01-29T00:45:07.844Z,23.90
2023-01-29T00:47:38.168Z,22.90
2023-01-29T00:50:13.267Z,24.57
2023-01-29T00:52:45.535Z,23.47
2023-01-29T00:55:15.761Z,21.97
2023-01-29T00:57:46.143Z,21.77
2023-01-29T01:00:18.804Z,22.57
2023-01-29T01:03:07.943Z,22.20
2023-01-29T01:05:39.404Z,23.80
2023-01-29T01:08:25.873Z,20.53
2023-01-29T01:11:04.346Z,20.80
2023-01-29T01:13:35.059Z,24.00
2023-01-29T01:16:10.904Z,23.70
2023-01-29T01:18:41.381Z,22.60
2023-01-29T01:21:11.870Z,23.70
2023-01-29T01:23:43.456Z,22.37
2023-01-29T01:26:14.017Z,21.57
2023-01-29T01:28:44.281Z,22.20
2023-01-29T01:31:15.776Z,24.33
2023-01-29T01:33:46.664Z,23.33
2023-01-29T01:36:17.702Z,23.47
2023-01-29T01:38:49.875Z,27.07
2023-01-29T01:41:21.995Z,23.93
2023-01-29T01:43:53.750Z,23.60
2023-01-29T01:46:24.327Z,24.07
2023-01-29T01:48:57.087Z,24.03
2023-01-29T01:51:29.707Z,23.90
2023-01-29T01:54:05.087Z,23.73
2023-01-29T01:56:41.247Z,22.77
2023-01-29T01:59:14.587Z,24.67
2023-01-29T02:01:48.093Z,22.30
2023-01-29T02:04:38.093Z,22.50
2023-01-29T02:07:28.498Z,21.93
2023-01-29T02:10:06.189Z,21.63
2023-01-29T02:12:36.510Z,23.40
2023-01-29T02:15:07.708Z,24.33
2023-01-29T02:17:37.770Z,25.20
2023-01-29T02:20:15.839Z,22.73
2023-01-29T02:23:28.079Z,22.30
2023-01-29T02:26:22.769Z,23.13
2023-01-29T02:28:58.334Z,22.77
2023-01-29T02:31:33.471Z,24.13
2023-01-29T02:34:10.804Z,20.40
2023-01-29T02:36:47.403Z,22.23
2023-01-29T02:39:26.190Z,21.87
2023-01-29T02:42:06.438Z,23.40
2023-01-29T02:44:42.505Z,21.90
2023-01-29T02:47:17.013Z,21.30
2023-01-29T02:49:50.866Z,21.90
2023-01-29T02:52:23.840Z,21.27
2023-01-29T02:54:57.293Z,20.33
2023-01-29T02:57:31.080Z,21.60
2023-01-29T03:00:05.299Z,20.23
2023-01-29T03:02:39.626Z,20.80
2023-01-29T03:05:12.920Z,19.03
2023-01-29T03:07:46.669Z,20.63
2023-01-29T03:10:20.683Z,20.17
2023-01-29T03:13:02.610Z,20.70
2023-01-29T03:15:42.536Z,21.20
2023-01-29T03:18:16.162Z,20.40
2023-01-29T03:20:49.664Z,20.67
2023-01-29T03:23:27.451Z,19.93
2023-01-29T03:26:16.881Z,19.00
2023-01-29T03:29:05.084Z,21.47
2023-01-29T03:31:53.861Z,20.87
2023-01-29T03:34:34.951Z,19.83
2023-01-29T03:37:09.675Z,20.20
2023-01-29T03:39:40.015Z,23.23
2023-01-29T03:42:18.489Z,19.50
2023-01-29T03:44:56.640Z,19.60
2023-01-29T03:47:37.898Z,19.10
2023-01-29T03:50:12.038Z,19.47
2023-01-29T03:52:47.398Z,21.50
2023-01-29T03:55:19.552Z,21.67
2023-01-29T03:57:56.092Z,21.87
2023-01-29T04:00:30.522Z,21.10
2023-01-29T04:03:08.118Z,20.40
2023-01-29T04:05:44.733Z,19.20
2023-01-29T04:08:21.609Z,22.87
2023-01-29T04:10:53.308Z,20.10
2023-01-29T04:13:22.918Z,22.37
2023-01-29T04:15:58.074Z,22.73
2023-01-29T04:18:30.978Z,20.37
2023-01-29T04:21:01.043Z,20.93
2023-01-29T04:23:31.854Z,20.07
2023-01-29T04:26:34.974Z,20.80
2023-01-29T04:29:30.514Z,20.20
2023-01-29T04:32:06.793Z,20.83
2023-01-29T04:34:49.460Z,22.47
2023-01-29T04:37:28.341Z,21.20
2023-01-29T04:40:01.924Z,21.03
2023-01-29T04:42:36.596Z,22.70
2023-01-29T04:45:12.319Z,19.87
2023-01-29T04:47:48.253Z,20.10
2023-01-29T04:50:23.359Z,18.67
2023-01-29T04:52:58.145Z,19.30
2023-01-29T04:55:36.198Z,18.03
2023-01-29T04:58:10.477Z,18.50
2023-01-29T05:00:43.625Z,17.47
2023-01-29T05:03:15.680Z,19.00
2023-01-29T05:05:48.582Z,19.93
2023-01-29T05:08:21.349Z,16.67
2023-01-29T05:10:53.527Z,16.90
2023-01-29T05:13:24.894Z,17.70
2023-01-29T05:15:58.832Z,18.07
2023-01-29T05:18:29.724Z,19.67
2023-01-29T05:21:06.305Z,18.60
2023-01-29T05:23:35.864Z,18.60
2023-01-29T05:26:06.476Z,18.60
2023-01-29T05:28:35.416Z,18.10
2023-01-29T05:31:05.218Z,18.70
2023-01-29T05:33:34.834Z,17.67
2023-01-29T05:36:07.513Z,19.17
2023-01-29T05:38:37.927Z,17.70
2023-01-29T05:41:08.313Z,18.60
2023-01-29T05:43:38.374Z,20.83
2023-01-29T05:46:08.144Z,17.93
2023-01-29T05:48:38.281Z,17.50
2023-01-29T05:51:09.771Z,18.03
2023-01-29T05:53:39.932Z,16.43
2023-01-29T05:56:11.118Z,17.40
2023-01-29T05:58:41.695Z,17.57
2023-01-29T06:01:13.813Z,17.17
2023-01-29T06:03:43.949Z,19.33
2023-01-29T06:06:16.588Z,18.13
2023-01-29T06:08:47.075Z,16.50
2023-01-29T06:11:18.655Z,19.30
2023-01-29T06:13:49.505Z,18.70
2023-01-29T06:16:19.608Z,16.50
2023-01-29T06:18:50.160Z,16.80
2023-01-29T06:21:24.987Z,17.57
2023-01-29T06:23:55.532Z,17.67
2023-01-29T06:26:26.066Z,18.00
2023-01-29T06:28:56.552Z,18.10
2023-01-29T06:31:38.529Z,15.43
2023-01-29T06:34:09.910Z,17.03
2023-01-29T06:36:42.116Z,18.43
2023-01-29T06:39:12.875Z,17.30
2023-01-29T06:41:43.081Z,18.30
2023-01-29T06:44:13.324Z,18.27
2023-01-29T06:46:43.794Z,19.03
2023-01-29T06:49:13.788Z,15.93
2023-01-29T06:51:45.448Z,17.67
2023-01-29T06:54:15.920Z,16.70
2023-01-29T06:56:46.034Z,17.10
2023-01-29T06:59:16.841Z,17.23
2023-01-29T07:01:47.489Z,19.97
2023-01-29T07:04:18.379Z,17.50
2023-01-29T07:06:50.317Z,16.70
2023-01-29T07:09:20.646Z,18.93
2023-01-29T07:11:50.913Z,19.80
2023-01-29T07:14:21.708Z,20.97
2023-01-29T07:16:52.035Z,21.60
2023-01-29T07:19:22.270Z,24.80
2023-01-29T07:21:54.110Z,22.30
2023-01-29T07:24:25.288Z,23.03
2023-01-29T07:26:56.232Z,22.20
2023-01-29T07:29:26.494Z,23.00
2023-01-29T07:31:56.893Z,21.00
2023-01-29T07:34:27.470Z,23.73
2023-01-29T07:37:00.684Z,20.53
2023-01-29T07:39:31.172Z,23.37
2023-01-29T07:42:02.643Z,21.30
2023-01-29T07:44:32.465Z,21.53
2023-01-29T07:47:02.088Z,23.80
2023-01-29T07:49:32.672Z,22.27
2023-01-29T07:52:04.434Z,21.67
2023-01-29T07:54:34.416Z,20.90
2023-01-29T07:57:04.590Z,20.70
2023-01-29T07:59:35.787Z,22.57
2023-01-29T08:02:06.383Z,21.50
2023-01-29T08:04:36.753Z,24.60
2023-01-29T08:07:10.119Z,25.07
2023-01-29T08:09:40.751Z,22.40
2023-01-29T08:12:10.535Z,21.67
2023-01-29T08:14:40.826Z,22.33
2023-01-29T08:17:11.024Z,23.17
2023-01-29T08:19:41.100Z,23.50
2023-01-29T08:22:12.728Z,22.57
2023-01-29T08:24:53.696Z,22.63
2023-01-29T08:27:29.678Z,21.73
2023-01-29T08:29:59.628Z,22.13
2023-01-29T08:32:29.617Z,22.33
2023-01-29T08:34:59.575Z,21.43
2023-01-29T08:37:31.454Z,19.33
2023-01-29T08:40:01.872Z,19.17
2023-01-29T08:42:32.594Z,19.07
2023-01-29T08:45:02.405Z,20.27
2023-01-29T08:47:32.343Z,19.40
2023-01-29T08:50:02.973Z,18.57
2023-01-29T08:52:34.681Z,19.07
2023-01-29T08:55:04.843Z,20.60
2023-01-29T08:57:35.042Z,19.67
2023-01-29T09:00:05.659Z,20.00
2023-01-29T09:02:35.715Z,20.10
2023-01-29T09:05:07.628Z,19.70
2023-01-29T09:07:39.467Z,20.70
2023-01-29T09:10:10.818Z,20.10
2023-01-29T09:12:40.993Z,19.80
2023-01-29T09:15:13.192Z,16.70
2023-01-29T09:17:43.884Z,14.33
2023-01-29T09:20:14.815Z,16.70
2023-01-29T09:22:47.130Z,15.90
2023-01-29T09:25:17.586Z,16.07
2023-01-29T09:27:47.621Z,12.90
2023-01-29T09:30:18.486Z,12.07
2023-01-29T09:32:55.720Z,13.07
2023-01-29T09:35:25.828Z,14.00
2023-01-29T09:37:57.674Z,13.57
2023-01-29T09:40:34.600Z,16.50
2023-01-29T09:43:08.669Z,12.33
2023-01-29T09:45:38.918Z,13.47
2023-01-29T09:48:13.711Z,11.23
2023-01-29T09:50:46.115Z,12.10
2023-01-29T09:53:22.036Z,13.80
2023-01-29T09:55:55.163Z,13.20
2023-01-29T09:58:29.358Z,10.40
2023-01-29T10:01:07.125Z,11.90
2023-01-29T10:03:52.803Z,11.77
2023-01-29T10:06:36.528Z,12.40
2023-01-29T10:09:43.720Z,12.80
2023-01-29T10:12:39.510Z,12.33
2023-01-29T10:15:21.473Z,12.30
2023-01-29T10:18:07.554Z,12.53
2023-01-29T10:20:49.350Z,11.03
2023-01-29T10:23:24.310Z,10.60
2023-01-29T10:25:56.688Z,11.20
2023-01-29T10:28:31.615Z,11.37
2023-01-29T10:31:04.762Z,12.00
2023-01-29T10:33:49.659Z,11.90
2023-01-29T10:36:34.422Z,12.17
2023-01-29T10:39:04.736Z,12.77
2023-01-29T10:41:57.373Z,12.40
2023-01-29T10:44:40.074Z,13.50
2023-01-29T10:47:34.872Z,13.90
2023-01-29T10:50:26.957Z,12.90
2023-01-29T10:53:11.204Z,13.90
2023-01-29T10:55:49.494Z,12.20
2023-01-29T10:58:28.110Z,11.93
2023-01-29T11:00:59.013Z,11.70
2023-01-29T11:03:30.375Z,14.80
2023-01-29T11:06:14.805Z,12.30
2023-01-29T11:08:48.376Z,10.77
2023-01-29T11:11:22.213Z,11.87
2023-01-29T11:13:58.331Z,14.50
2023-01-29T11:16:28.789Z,13.17
2023-01-29T11:19:01.424Z,13.63
2023-01-29T11:21:31.757Z,12.30
2023-01-29T11:24:09.969Z,12.97
2023-01-29T11:26:42.410Z,11.57
2023-01-29T11:29:41.178Z,12.00
2023-01-29T11:32:15.536Z,13.10
2023-01-29T11:35:06.496Z,12.70
2023-01-29T11:37:38.503Z,14.23
2023-01-29T11:40:33.573Z,14.37
2023-01-29T11:43:15.339Z,13.00
2023-01-29T11:45:47.416Z,13.30
2023-01-29T11:48:19.896Z,13.30
2023-01-29T11:50:54.817Z,14.37
2023-01-29T11:53:34.159Z,13.27
2023-01-29T11:56:07.018Z,14.80
2023-01-29T11:58:38.764Z,13.47
2023-01-29T12:01:10.128Z,13.97
2023-01-29T12:03:44.060Z,13.97
2023-01-29T12:06:20.694Z,14.57
2023-01-29T12:08:57.595Z,13.77
2023-01-29T12:11:31.799Z,13.50
2023-01-29T12:14:03.921Z,13.77
2023-01-29T12:16:40.215Z,13.13
2023-01-29T12:19:16.055Z,13.53
2023-01-29T12:21:49.514Z,12.53
2023-01-29T12:24:33.055Z,13.23
2023-01-29T12:27:09.785Z,14.73
2023-01-29T12:29:45.395Z,12.03
2023-01-29T12:32:29.307Z,12.33
2023-01-29T12:35:04.253Z,12.20
2023-01-29T12:37:40.192Z,12.60
2023-01-29T12:40:15.726Z,13.50
2023-01-29T12:42:49.886Z,12.20
2023-01-29T12:45:22.414Z,11.47
2023-01-29T12:47:56.064Z,11.70
2023-01-29T12:50:31.757Z,13.03
2023-01-29T12:53:03.944Z,11.27
2023-01-29T12:55:39.152Z,13.80
2023-01-29T12:58:14.529Z,12.53
2023-01-29T13:00:48.279Z,12.13
2023-01-29T13:03:23.732Z,12.13
2023-01-29T13:05:56.820Z,11.53
2023-01-29T13:08:31.348Z,13.07
2023-01-29T13:11:04.480Z,13.57
2023-01-29T13:13:36.688Z,11.90
2023-01-29T13:16:09.517Z,12.50
2023-01-29T13:18:45.115Z,13.10
2023-01-29T13:21:18.048Z,12.50
2023-01-29T13:23:50.279Z,12.43
2023-01-29T13:26:21.758Z,11.07
2023-01-29T13:28:53.253Z,13.20
2023-01-29T13:31:32.032Z,14.27
2023-01-29T13:34:09.789Z,11.80
2023-01-29T13:36:43.058Z,13.03
2023-01-29T13:39:22.163Z,12.90
2023-01-29T13:41:53.213Z,12.67
2023-01-29T13:44:27.148Z,13.17
2023-01-29T13:47:00.118Z,11.57
2023-01-29T13:49:39.869Z,12.97
2023-01-29T13:52:36.277Z,12.10
2023-01-29T13:55:09.317Z,11.40
2023-01-29T13:57:55.987Z,11.90
2023-01-29T14:00:53.821Z,12.90
2023-01-29T14:04:06.037Z,11.03
2023-01-29T14:06:45.349Z,11.17
2023-01-29T14:09:58.597Z,11.00
2023-01-29T14:12:50.204Z,11.33
2023-01-29T14:15:27.415Z,11.50
2023-01-29T14:18:06.998Z,10.57
2023-01-29T14:20:48.564Z,12.77
2023-01-29T14:23:35.929Z,12.03
2023-01-29T14:26:07.230Z,12.50
2023-01-29T14:28:38.415Z,11.43
2023-01-29T14:31:09.181Z,11.40
2023-01-29T14:33:43.492Z,12.17
2023-01-29T14:36:16.296Z,12.10
2023-01-29T14:38:52.744Z,11.60
2023-01-29T14:41:28.840Z,12.03
2023-01-29T14:44:35.025Z,11.50
2023-01-29T14:47:06.471Z,11.90
2023-01-29T14:49:54.503Z,10.80
2023-01-29T14:52:30.088Z,11.67
2023-01-29T14:55:05.673Z,12.27
2023-01-29T14:57:36.446Z,11.43
2023-01-29T15:00:10.011Z,12.40
2023-01-29T15:02:42.989Z,11.20
2023-01-29T15:05:15.953Z,11.90
2023-01-29T15:07:51.099Z,13.60
2023-01-29T15:10:27.080Z,14.67
2023-01-29T15:13:02.921Z,12.00
2023-01-29T15:15:37.474Z,12.23
2023-01-29T15:18:11.308Z,12.10
2023-01-29T15:20:43.003Z,10.80
2023-01-29T15:23:31.718Z,11.90
2023-01-29T15:26:06.989Z,11.63
2023-01-29T15:28:38.629Z,12.67
2023-01-29T15:31:13.540Z,11.30
2023-01-29T15:33:46.815Z,15.00
2023-01-29T15:36:21.700Z,12.60
2023-01-29T15:39:07.608Z,12.37
2023-01-29T15:41:40.269Z,12.87
2023-01-29T15:44:17.432Z,13.87
2023-01-29T15:46:50.307Z,15.60
2023-01-29T15:49:26.361Z,13.83
2023-01-29T15:52:05.311Z,13.40
2023-01-29T15:54:36.942Z,14.13
2023-01-29T15:57:21.594Z,13.13
2023-01-29T15:59:52.892Z,13.53
2023-01-29T16:02:32.145Z,13.10
2023-01-29T16:05:02.542Z,13.87
2023-01-29T16:07:33.248Z,13.30
2023-01-29T16:10:04.027Z,13.83
2023-01-29T16:12:38.273Z,14.80
2023-01-29T16:15:15.534Z,12.50
2023-01-29T16:17:47.269Z,13.40
2023-01-29T16:20:38.832Z,13.00
2023-01-29T16:23:11.080Z,14.00
2023-01-29T16:25:42.192Z,13.33
2023-01-29T16:28:14.474Z,15.20
2023-01-29T16:30:44.416Z,14.10
2023-01-29T16:33:17.793Z,14.57
2023-01-29T16:35:53.754Z,14.87
2023-01-29T16:38:30.006Z,15.07
2023-01-29T16:41:16.432Z,11.93
2023-01-29T16:43:54.640Z,12.83
2023-01-29T16:46:34.870Z,14.57
2023-01-29T16:49:06.548Z,14.87
2023-01-29T16:51:40.361Z,14.60
2023-01-29T16:54:16.245Z,13.80
2023-01-29T16:56:47.256Z,14.20
2023-01-29T16:59:23.479Z,12.87
2023-01-29T17:01:53.860Z,14.03
2023-01-29T17:04:24.312Z,15.97
2023-01-29T17:06:58.650Z,14.90
2023-01-29T17:09:32.209Z,14.17
2023-01-29T17:12:04.505Z,14.80
2023-01-29T17:14:38.984Z,13.23
2023-01-29T17:17:16.110Z,15.03
2023-01-29T17:19:46.604Z,13.33
2023-01-29T17:22:16.908Z,13.57
2023-01-29T17:24:49.322Z,14.60
2023-01-29T17:27:21.790Z,16.33
2023-01-29T17:29:53.693Z,14.90
2023-01-29T17:32:23.990Z,13.70
2023-01-29T17:34:54.531Z,15.50
2023-01-29T17:37:25.022Z,14.70
2023-01-29T17:39:56.880Z,14.30
2023-01-29T17:42:29.027Z,13.80
2023-01-29T17:45:00.588Z,15.17
2023-01-29T17:47:30.676Z,16.30
2023-01-29T17:50:01.131Z,16.43
2023-01-29T17:52:32.564Z,17.83
2023-01-29T17:55:02.725Z,15.80
2023-01-29T17:57:33.503Z,15.57
2023-01-29T18:00:10.235Z,17.13
2023-01-29T18:02:40.768Z,18.70
2023-01-29T18:05:11.361Z,20.77
2023-01-29T18:07:43.303Z,18.17
2023-01-29T18:10:17.952Z,18.50
2023-01-29T18:12:48.473Z,18.20
2023-01-29T18:15:20.789Z,16.00
2023-01-29T18:17:53.068Z,18.40
2023-01-29T18:20:25.857Z,17.63
2023-01-29T18:22:57.487Z,16.90
2023-01-29T18:25:27.410Z,15.30
2023-01-29T18:27:57.662Z,15.53
2023-01-29T18:30:29.399Z,17.50
2023-01-29T18:33:00.039Z,13.93
2023-01-29T18:35:31.162Z,14.23
2023-01-29T18:38:02.216Z,14.00
2023-01-29T18:40:32.917Z,13.77
2023-01-29T18:43:04.624Z,13.57
2023-01-29T18:45:37.057Z,12.63
2023-01-29T18:48:07.983Z,13.40
2023-01-29T18:50:40.508Z,12.90
2023-01-29T18:53:11.042Z,13.20
2023-01-29T18:55:41.084Z,12.90
2023-01-29T18:58:27.019Z,13.70
2023-01-29T19:01:07.216Z,15.90
2023-01-29T19:03:39.580Z,14.30
2023-01-29T19:06:11.482Z,12.60
2023-01-29T19:08:43.205Z,12.83
2023-01-29T19:11:13.550Z,12.67
2023-01-29T19:13:43.600Z,13.93
2023-01-29T19:16:15.780Z,11.30
2023-01-29T19:18:45.879Z,12.57
2023-01-29T19:21:17.992Z,13.70
2023-01-29T19:23:48.117Z,12.77
2023-01-29T19:26:18.627Z,12.87
2023-01-29T19:28:48.901Z,14.07
2023-01-29T19:31:21.043Z,13.73
2023-01-29T19:33:52.146Z,15.33
2023-01-29T19:36:22.258Z,15.13
2023-01-29T19:38:52.735Z,18.27
2023-01-29T19:41:23.889Z,14.90
2023-01-29T19:43:54.768Z,17.13
2023-01-29T19:46:29.705Z,15.33
2023-01-29T19:49:00.128Z,13.90
2023-01-29T19:51:31.144Z,14.80
2023-01-29T19:54:01.554Z,13.50
2023-01-29T19:56:31.889Z,14.20
2023-01-29T19:59:02.429Z,12.57
2023-01-29T20:01:34.947Z,15.73
2023-01-29T20:04:06.344Z,14.40
2023-01-29T20:06:37.111Z,14.67
2023-01-29T20:09:07.471Z,14.23
2023-01-29T20:11:38.165Z,15.03
2023-01-29T20:14:08.737Z,15.63
2023-01-29T20:16:41.399Z,15.20
2023-01-29T20:19:14.413Z,16.57
2023-01-29T20:21:47.243Z,16.53
2023-01-29T20:24:18.476Z,13.83
2023-01-29T20:26:48.623Z,14.33
2023-01-29T20:29:19.320Z,14.17
2023-01-29T20:31:51.675Z,14.73
2023-01-29T20:34:21.897Z,13.30
2023-01-29T20:36:52.095Z,13.33
2023-01-29T20:39:22.669Z,13.10
2023-01-29T20:41:53.073Z,12.80
2023-01-29T20:44:23.609Z,15.37
2023-01-29T20:46:55.138Z,14.03
2023-01-29T20:49:24.988Z,13.23
2023-01-29T20:51:54.941Z,14.70
2023-01-29T20:54:25.772Z,14.17
2023-01-29T20:56:56.322Z,14.20
2023-01-29T20:59:29.451Z,14.17
2023-01-29T21:02:02.707Z,13.87
2023-01-29T21:04:32.784Z,15.07
2023-01-29T21:07:04.416Z,13.30
2023-01-29T21:09:34.645Z,14.73
2023-01-29T21:12:07.519Z,13.57
2023-01-29T21:14:37.813Z,14.50
2023-01-29T21:17:09.489Z,16.57
2023-01-29T21:19:39.754Z,14.50
2023-01-29T21:22:10.152Z,13.57
2023-01-29T21:24:40.583Z,13.40
2023-01-29T21:27:11.253Z,12.90
2023-01-29T21:29:41.908Z,13.97
2023-01-29T21:32:15.188Z,14.27
2023-01-29T21:34:45.618Z,13.33
2023-01-29T21:37:16.437Z,16.30
2023-01-29T21:39:46.514Z,14.67
2023-01-29T21:42:34.044Z,15.63
2023-01-29T21:45:04.567Z,14.40
2023-01-29T21:47:37.391Z,13.10
2023-01-29T21:50:08.748Z,13.90
2023-01-29T21:52:41.737Z,14.03
2023-01-29T21:55:13.802Z,14.77
2023-01-29T21:57:46.969Z,14.43
2023-01-29T22:00:20.112Z,16.40
2023-01-29T22:02:53.719Z,15.20
2023-01-29T22:05:24.303Z,16.50
2023-01-29T22:07:54.779Z,14.57
2023-01-29T22:10:25.234Z,16.90
2023-01-29T22:12:58.272Z,15.83
2023-01-29T22:15:28.847Z,15.80
2023-01-29T22:18:00.496Z,15.10
2023-01-29T22:20:31.533Z,14.97
2023-01-29T22:23:01.681Z,13.00
2023-01-29T22:25:32.372Z,16.70
2023-01-29T22:28:02.702Z,14.43
2023-01-29T22:30:33.217Z,15.60
2023-01-29T22:33:05.498Z,14.90
2023-01-29T22:35:35.989Z,17.27
2023-01-29T22:38:06.769Z,15.30
2023-01-29T22:40:36.657Z,17.13
2023-01-29T22:43:07.226Z,14.90
2023-01-29T22:45:41.678Z,15.43
2023-01-29T22:48:13.760Z,16.03
2023-01-29T22:50:54.020Z,17.07
2023-01-29T22:53:26.172Z,12.80
2023-01-29T22:55:56.493Z,16.10
2023-01-29T22:58:26.694Z,15.00
2023-01-29T23:00:56.742Z,14.67
2023-01-29T23:03:29.066Z,14.53
2023-01-29T23:05:58.525Z,14.40
2023-01-29T23:08:29.235Z,15.70
2023-01-29T23:11:14.486Z,14.50
2023-01-29T23:13:45.683Z,14.30
2023-01-29T23:16:17.268Z,13.07
2023-01-29T23:18:52.271Z,17.73
2023-01-29T23:21:25.378Z,16.50
2023-01-29T23:23:58.483Z,16.00
2023-01-29T23:26:47.389Z,15.60
2023-01-29T23:29:17.762Z,14.97
2023-01-29T23:31:48.490Z,16.33
2023-01-29T23:34:20.574Z,16.27
2023-01-29T23:36:50.945Z,14.50
2023-01-29T23:39:22.257Z,16.70
2023-01-29T23:41:52.703Z,16.20
2023-01-29T23:44:22.931Z,16.33
2023-01-29T23:46:53.402Z,16.40
2023-01-29T23:49:25.020Z,13.40
2023-01-29T23:51:55.081Z,15.03
2023-01-29T23:54:25.393Z,16.00
2023-01-29T23:56:55.694Z,15.10
2023-01-29T23:59:28.190Z,15.70
